Flight Track Log - Related Links

Times and Time Zones

All times are in EDT time to prevent confusion due to time zone crossing. See the DAL55 flight status page for this flight to view local times or setup timezone preferences in your user account.

Time Position Orientation Groundspeed Altitude Reporting Facility
EDT Latitude Longitude Course Direction KTS MPH feet Rate Location/Type
Wed 04:44:00 PM 6.6122 3.2119 288° West  Level FlightAware Approximate
Wed 04:45:00 PM 6.6470 3.1026 288° West  Level FlightAware Approximate
Wed 04:46:00 PM 6.6817 2.9933 288° West  Level FlightAware Approximate
Wed 04:47:00 PM 6.7165 2.8839 288° West  Level FlightAware Approximate
Wed 04:48:00 PM 6.7512 2.7746 288° West  Level FlightAware Approximate
Wed 04:49:00 PM 6.7859 2.6652 288° West  Level FlightAware Approximate
Wed 04:50:00 PM 6.8205 2.5559 288° West  Level FlightAware Approximate
Wed 04:51:00 PM 6.8552 2.4465 288° West  Level FlightAware Approximate
Wed 04:52:00 PM 6.8898 2.3370 288° West  Level FlightAware Approximate
Wed 04:53:00 PM 6.9244 2.2276 288° West  Level FlightAware Approximate
Wed 04:54:00 PM 6.9590 2.1182 288° West  Level FlightAware Approximate
Wed 04:55:00 PM 6.9935 2.0087 288° West  Level FlightAware Approximate
Wed 04:56:00 PM 7.0280 1.8993 288° West  Level FlightAware Approximate
Wed 04:57:00 PM 7.0625 1.7898 288° West  Level FlightAware Approximate
Wed 04:58:00 PM 7.1248 1.6936 309° West  Level Estimated
Wed 04:59:00 PM 7.1938 1.6021 307° West  Level FlightAware Approximate
Wed 05:00:00 PM 7.2628 1.5106 307° West  Level FlightAware Approximate
Wed 05:01:00 PM 7.3317 1.4190 307° West  Level FlightAware Approximate
Wed 05:02:00 PM 7.4006 1.3275 307° West  Level FlightAware Approximate
Wed 05:03:00 PM 7.4694 1.2358 307° West  Level FlightAware Approximate
Wed 05:04:00 PM 7.5383 1.1442 307° West  Level FlightAware Approximate
Wed 05:05:00 PM 7.6072 1.0525 307° West  Level FlightAware Approximate
Wed 05:06:00 PM 7.6760 0.9608 307° West  Level FlightAware Approximate
Wed 05:07:00 PM 7.7409 0.8743 307° West  Level FlightAware Approximate
Wed 05:08:00 PM 7.8058 0.7877 307° West  Level FlightAware Approximate
Wed 05:09:00 PM 7.8707 0.7012 307° West  Level FlightAware Approximate
Wed 05:10:00 PM 7.9356 0.6145 307° West  Level FlightAware Approximate
Wed 05:11:00 PM 8.0004 0.5279 307° West  Level FlightAware Approximate
Wed 05:12:00 PM 8.0680 0.4375 307° West  Level FlightAware Approximate
Wed 05:13:00 PM 8.1356 0.3470 307° West  Level FlightAware Approximate
Wed 05:14:00 PM 8.2032 0.2566 307° West  Level FlightAware Approximate
Wed 05:15:00 PM 8.2708 0.1660 307° West  Level FlightAware Approximate
Wed 05:16:00 PM 8.3383 0.0755 307° West  Level FlightAware Approximate
Wed 05:17:00 PM 8.4059 -0.0151 307° West  Level FlightAware Approximate
Wed 05:18:00 PM 8.4734 -0.1057 307° West  Level FlightAware Approximate
Wed 05:19:00 PM 8.5409 -0.1963 307° West  Level FlightAware Approximate
Wed 05:20:00 PM 8.6083 -0.2870 307° West  Level FlightAware Approximate
Wed 05:21:00 PM 8.6758 -0.3777 307° West  Level FlightAware Approximate
Wed 05:22:00 PM 8.7432 -0.4685 307° West  Level FlightAware Approximate
Wed 05:23:00 PM 8.8106 -0.5592 307° West  Level FlightAware Approximate
Wed 05:24:00 PM 8.8780 -0.6500 307° West  Level FlightAware Approximate
Wed 05:25:00 PM 8.9454 -0.7409 307° West  Level FlightAware Approximate
Wed 05:26:00 PM 9.0127 -0.8317 307° West  Level FlightAware Approximate
Wed 05:27:00 PM 9.0800 -0.9226 307° West  Level FlightAware Approximate
Wed 05:28:00 PM 9.1473 -1.0136 307° West  Level FlightAware Approximate
Wed 05:29:00 PM 9.2146 -1.1045 307° West  Level FlightAware Approximate
Wed 05:30:00 PM 9.2818 -1.1955 307° West  Level FlightAware Approximate
Wed 05:31:00 PM 9.3490 -1.2866 307° West  Level FlightAware Approximate
Wed 05:32:00 PM 9.4163 -1.3777 307° West  Level FlightAware Approximate
Wed 05:33:00 PM 9.4834 -1.4688 307° West  Level FlightAware Approximate
Wed 05:34:00 PM 9.5506 -1.5599 307° West  Level FlightAware Approximate
Wed 05:35:00 PM 9.6177 -1.6511 307° West  Level FlightAware Approximate
Wed 05:36:00 PM 9.6848 -1.7423 307° West  Level FlightAware Approximate
Wed 05:37:00 PM 9.7469 -1.8267 307° West  Level FlightAware Approximate
Wed 05:38:00 PM 9.8089 -1.9111 307° West  Level FlightAware Approximate
Wed 05:39:00 PM 9.8709 -1.9956 307° West  Level FlightAware Approximate
Wed 05:40:00 PM 9.9328 -2.0801 307° West  Level FlightAware Approximate
Wed 05:41:00 PM 9.9948 -2.1646 307° West  Level FlightAware Approximate
Wed 05:42:00 PM 10.0567 -2.2491 307° West  Level FlightAware Approximate
Wed 05:43:00 PM 10.1186 -2.3337 307° West  Level FlightAware Approximate
Wed 05:44:00 PM 10.1788 -2.4160 307° West  Level FlightAware Approximate
Wed 05:45:00 PM 10.2390 -2.4984 307° West  Level FlightAware Approximate
Wed 05:46:00 PM 10.2992 -2.5808 307° West  Level FlightAware Approximate
Wed 05:47:00 PM 10.3594 -2.6632 307° West  Level FlightAware Approximate
Wed 05:48:00 PM 10.4195 -2.7456 307° West  Level FlightAware Approximate
Wed 05:49:00 PM 10.4796 -2.8281 307° West  Level FlightAware Approximate
Wed 05:50:00 PM 10.5396 -2.9106 307° West  Level FlightAware Approximate
Wed 05:51:00 PM 10.5997 -2.9931 307° West  Level FlightAware Approximate
Wed 05:52:00 PM 10.6597 -3.0757 307° West  Level FlightAware Approximate
Wed 05:53:00 PM 10.7198 -3.1583 306° West  Level FlightAware Approximate
Wed 05:54:00 PM 10.7798 -3.2409 306° West  Level FlightAware Approximate
Wed 05:55:00 PM 10.8467 -3.3332 306° West  Level FlightAware Approximate
Wed 05:56:00 PM 10.9136 -3.4255 306° West  Level FlightAware Approximate
Wed 05:57:00 PM 10.9805 -3.5178 306° West  Level FlightAware Approximate
Wed 05:58:00 PM 11.0473 -3.6102 306° West  Level FlightAware Approximate
Wed 05:59:00 PM 11.1141 -3.7026 306° West  Level FlightAware Approximate
Wed 06:00:00 PM 11.1809 -3.7951 306° West  Level FlightAware Approximate
Wed 06:01:00 PM 11.2477 -3.8876 306° West  Level FlightAware Approximate
Wed 06:02:00 PM 11.3144 -3.9801 306° West  Level FlightAware Approximate
Wed 06:03:00 PM 11.3811 -4.0727 306° West  Level FlightAware Approximate
Wed 06:04:00 PM 11.4491 -4.1672 306° West  Level FlightAware Approximate
Wed 06:05:00 PM 11.5171 -4.2618 306° West  Level FlightAware Approximate
Wed 06:06:00 PM 11.5851 -4.3564 306° West  Level FlightAware Approximate
Wed 06:07:00 PM 11.6530 -4.4510 306° West  Level FlightAware Approximate
Wed 06:08:00 PM 11.7209 -4.5457 306° West  Level FlightAware Approximate
Wed 06:09:00 PM 11.7887 -4.6404 306° West  Level FlightAware Approximate
Wed 06:10:00 PM 11.8566 -4.7352 306° West  Level FlightAware Approximate
Wed 06:11:00 PM 11.9244 -4.8300 306° West  Level FlightAware Approximate
Wed 06:12:00 PM 11.9922 -4.9249 306° West  Level FlightAware Approximate
Wed 06:13:00 PM 12.0599 -5.0198 306° West  Level FlightAware Approximate
Wed 06:14:00 PM 12.1276 -5.1148 306° West  Level FlightAware Approximate
Wed 06:15:00 PM 12.1953 -5.2098 306° West  Level FlightAware Approximate
Wed 06:16:00 PM 12.2629 -5.3049 306° West  Level FlightAware Approximate
Wed 06:17:00 PM 12.3305 -5.4000 306° West  Level FlightAware Approximate
Wed 06:18:00 PM 12.3981 -5.4952 306° West  Level FlightAware Approximate
Wed 06:19:00 PM 12.4656 -5.5904 306° West  Level FlightAware Approximate
Wed 06:20:00 PM 12.5331 -5.6857 306° West  Level FlightAware Approximate
Wed 06:21:00 PM 12.6006 -5.7810 306° West  Level FlightAware Approximate
Wed 06:22:00 PM 12.6680 -5.8763 306° West  Level FlightAware Approximate
Wed 06:23:00 PM 12.7354 -5.9717 306° West  Level FlightAware Approximate
Wed 06:24:00 PM 12.8028 -6.0672 306° West  Level FlightAware Approximate
Wed 06:25:00 PM 12.8702 -6.1627 306° West  Level FlightAware Approximate
Wed 06:26:00 PM 12.9375 -6.2583 306° West  Level FlightAware Approximate
Wed 06:27:00 PM 13.0047 -6.3539 306° West  Level FlightAware Approximate
Wed 06:28:00 PM 13.0720 -6.4496 306° West  Level FlightAware Approximate
Wed 06:29:00 PM 13.1392 -6.5453 306° West  Level FlightAware Approximate
Wed 06:30:00 PM 13.2063 -6.6411 306° West  Level FlightAware Approximate
Wed 06:31:00 PM 13.2734 -6.7369 306° West  Level FlightAware Approximate
Wed 06:32:00 PM 13.3405 -6.8328 306° West  Level FlightAware Approximate
Wed 06:33:00 PM 13.4076 -6.9287 306° West  Level FlightAware Approximate
Wed 06:34:00 PM 13.4747 -7.0248 306° West  Level FlightAware Approximate
Wed 06:35:00 PM 13.5418 -7.1210 306° West  Level FlightAware Approximate
Wed 06:36:00 PM 13.6088 -7.2172 306° West  Level FlightAware Approximate
Wed 06:37:00 PM 13.6758 -7.3135 306° West  Level FlightAware Approximate
Wed 06:38:00 PM 13.7428 -7.4099 306° West  Level FlightAware Approximate
Wed 06:39:00 PM 13.8097 -7.5063 306° West  Level FlightAware Approximate
Wed 06:40:00 PM 13.8766 -7.6027 306° West  Level FlightAware Approximate
Wed 06:41:00 PM 13.9434 -7.6992 306° West  Level FlightAware Approximate
Wed 06:42:00 PM 14.0102 -7.7958 306° West  Level FlightAware Approximate
Wed 06:43:00 PM 14.0770 -7.8924 305° West  Level FlightAware Approximate
Wed 06:44:00 PM 14.1437 -7.9890 305° West  Level FlightAware Approximate
Wed 06:45:00 PM 14.2104 -8.0858 305° West  Level FlightAware Approximate
Wed 06:46:00 PM 14.2771 -8.1826 305° West  Level FlightAware Approximate
Wed 06:47:00 PM 14.3437 -8.2794 305° West  Level FlightAware Approximate
Wed 06:48:00 PM 14.4103 -8.3763 305° West  Level FlightAware Approximate
Wed 06:49:00 PM 14.4768 -8.4733 305° West  Level FlightAware Approximate
Wed 06:50:00 PM 14.5433 -8.5703 305° West  Level FlightAware Approximate
Wed 06:51:00 PM 14.6098 -8.6673 305° West  Level FlightAware Approximate
Wed 06:52:00 PM 14.6762 -8.7645 305° West  Level FlightAware Approximate
Wed 06:53:00 PM 14.7426 -8.8617 305° West  Level FlightAware Approximate
Wed 06:54:00 PM 14.8089 -8.9589 305° West  Level FlightAware Approximate
Wed 06:55:00 PM 14.8752 -9.0562 305° West  Level FlightAware Approximate
Wed 06:56:00 PM 14.9415 -9.1536 305° West  Level FlightAware Approximate
Wed 06:57:00 PM 15.0077 -9.2510 305° West  Level FlightAware Approximate
Wed 06:58:00 PM 15.0738 -9.3485 305° West  Level FlightAware Approximate
Wed 06:59:00 PM 15.1400 -9.4461 305° West  Level FlightAware Approximate
Wed 07:00:00 PM 15.2061 -9.5437 305° West  Level FlightAware Approximate
Wed 07:01:00 PM 15.2721 -9.6413 305° West  Level FlightAware Approximate
Wed 07:02:00 PM 15.3381 -9.7391 305° West  Level FlightAware Approximate
Wed 07:03:00 PM 15.4041 -9.8369 305° West  Level FlightAware Approximate
Wed 07:04:00 PM 15.4700 -9.9347 305° West  Level FlightAware Approximate
Wed 07:05:00 PM 15.5359 -10.0326 305° West  Level FlightAware Approximate
Wed 07:06:00 PM 15.6017 -10.1306 305° West  Level FlightAware Approximate
Wed 07:07:00 PM 15.6675 -10.2287 305° West  Level FlightAware Approximate
Wed 07:08:00 PM 15.7259 -10.3317 307° West  Level Estimated
Wed 07:09:00 PM 15.7947 -10.4276 307° West  Level FlightAware Approximate
Wed 07:10:00 PM 15.8634 -10.5235 307° West  Level FlightAware Approximate
Wed 07:11:00 PM 15.9321 -10.6195 307° West  Level FlightAware Approximate
Wed 07:12:00 PM 16.0007 -10.7156 307° West  Level FlightAware Approximate
Wed 07:13:00 PM 16.0693 -10.8117 307° West  Level FlightAware Approximate
Wed 07:14:00 PM 16.1379 -10.9079 307° West  Level FlightAware Approximate
Wed 07:15:00 PM 16.2064 -11.0042 307° West  Level FlightAware Approximate
Wed 07:16:00 PM 16.2749 -11.1005 307° West  Level FlightAware Approximate
Wed 07:17:00 PM 16.3433 -11.1969 306° West  Level FlightAware Approximate
Wed 07:18:00 PM 16.4117 -11.2934 306° West  Level FlightAware Approximate
Wed 07:19:00 PM 16.4800 -11.3899 306° West  Level FlightAware Approximate
Wed 07:20:00 PM 16.5483 -11.4865 306° West  Level FlightAware Approximate
Wed 07:21:00 PM 16.6166 -11.5832 306° West  Level FlightAware Approximate
Wed 07:22:00 PM 16.6848 -11.6799 306° West  Level FlightAware Approximate
Wed 07:23:00 PM 16.7530 -11.7767 306° West  Level FlightAware Approximate
Wed 07:24:00 PM 16.8211 -11.8736 306° West  Level FlightAware Approximate
Wed 07:25:00 PM 16.8891 -11.9705 306° West  Level FlightAware Approximate
Wed 07:26:00 PM 16.9572 -12.0676 306° West  Level FlightAware Approximate
Wed 07:27:00 PM 17.0252 -12.1647 306° West  Level FlightAware Approximate
Wed 07:28:00 PM 17.0931 -12.2618 306° West  Level FlightAware Approximate
Wed 07:29:00 PM 17.1610 -12.3590 306° West  Level FlightAware Approximate
Wed 07:30:00 PM 17.2288 -12.4564 306° West  Level FlightAware Approximate
Wed 07:31:00 PM 17.2966 -12.5537 306° West  Level FlightAware Approximate
Wed 07:32:00 PM 17.3643 -12.6512 306° West  Level FlightAware Approximate
Wed 07:33:00 PM 17.4321 -12.7487 306° West  Level FlightAware Approximate
Wed 07:34:00 PM 17.4997 -12.8463 306° West  Level FlightAware Approximate
Wed 07:35:00 PM 17.5673 -12.9439 306° West  Level FlightAware Approximate
Wed 07:36:00 PM 17.6349 -13.0417 306° West  Level FlightAware Approximate
Wed 07:37:00 PM 17.7024 -13.1395 306° West  Level FlightAware Approximate
Wed 07:38:00 PM 17.7698 -13.2374 306° West  Level FlightAware Approximate
Wed 07:39:00 PM 17.8372 -13.3353 306° West  Level FlightAware Approximate
Wed 07:40:00 PM 17.9046 -13.4334 306° West  Level FlightAware Approximate
Wed 07:41:00 PM 17.9719 -13.5315 306° West  Level FlightAware Approximate
Wed 07:42:00 PM 18.0392 -13.6297 306° West  Level FlightAware Approximate
Wed 07:43:00 PM 18.1064 -13.7279 306° West  Level FlightAware Approximate
Wed 07:44:00 PM 18.1736 -13.8262 306° West  Level FlightAware Approximate
Wed 07:45:00 PM 18.2407 -13.9247 306° West  Level FlightAware Approximate
Wed 07:46:00 PM 18.3078 -14.0231 306° West  Level FlightAware Approximate
Wed 07:47:00 PM 18.3748 -14.1217 306° West  Level FlightAware Approximate
Wed 07:48:00 PM 18.4420 -14.2207 306° West  Level FlightAware Approximate
Wed 07:49:00 PM 18.5092 -14.3198 306° West  Level FlightAware Approximate
Wed 07:50:00 PM 18.5653 -14.4264 306° West  Level Estimated
Wed 07:51:00 PM 18.6332 -14.5250 306° West  Level FlightAware Approximate
Wed 07:52:00 PM 18.7010 -14.6238 306° West  Level FlightAware Approximate
Wed 07:53:00 PM 18.7688 -14.7226 306° West  Level FlightAware Approximate
Wed 07:54:00 PM 18.8365 -14.8215 306° West  Level FlightAware Approximate
Wed 07:55:00 PM 18.9042 -14.9205 306° West  Level FlightAware Approximate
Wed 07:56:00 PM 18.9718 -15.0195 306° West  Level FlightAware Approximate
Wed 07:57:00 PM 19.0393 -15.1187 306° West  Level FlightAware Approximate
Wed 07:58:00 PM 19.1068 -15.2179 306° West  Level FlightAware Approximate
Wed 07:59:00 PM 19.1743 -15.3172 306° West  Level FlightAware Approximate
Wed 08:00:00 PM 19.2417 -15.4166 306° West  Level FlightAware Approximate
Wed 08:01:00 PM 19.3090 -15.5160 306° West  Level FlightAware Approximate
Wed 08:02:00 PM 19.3763 -15.6156 306° West  Level FlightAware Approximate
Wed 08:03:00 PM 19.4436 -15.7152 306° West  Level FlightAware Approximate
Wed 08:04:00 PM 19.5108 -15.8149 306° West  Level FlightAware Approximate
Wed 08:05:00 PM 19.5779 -15.9147 306° West  Level FlightAware Approximate
Wed 08:06:00 PM 19.6450 -16.0146 306° West  Level FlightAware Approximate
Wed 08:07:00 PM 19.7120 -16.1145 305° West  Level FlightAware Approximate
Wed 08:08:00 PM 19.7790 -16.2146 305° West  Level FlightAware Approximate
Wed 08:09:00 PM 19.8459 -16.3147 305° West  Level FlightAware Approximate
Wed 08:10:00 PM 19.9127 -16.4149 305° West  Level FlightAware Approximate
Wed 08:11:00 PM 19.9795 -16.5152 305° West  Level FlightAware Approximate
Wed 08:12:00 PM 20.0463 -16.6156 305° West  Level FlightAware Approximate
Wed 08:13:00 PM 20.1129 -16.7161 305° West  Level FlightAware Approximate
Wed 08:14:00 PM 20.1796 -16.8166 305° West  Level FlightAware Approximate
Wed 08:15:00 PM 20.2461 -16.9172 305° West  Level FlightAware Approximate
Wed 08:16:00 PM 20.3127 -17.0180 305° West  Level FlightAware Approximate
Wed 08:17:00 PM 20.3791 -17.1188 305° West  Level FlightAware Approximate
Wed 08:18:00 PM 20.4455 -17.2197 305° West  Level FlightAware Approximate
Wed 08:19:00 PM 20.5119 -17.3207 305° West  Level FlightAware Approximate
Wed 08:20:00 PM 20.5781 -17.4217 305° West  Level FlightAware Approximate
Wed 08:21:00 PM 20.6444 -17.5229 305° West  Level FlightAware Approximate
Wed 08:22:00 PM 20.7105 -17.6241 305° West  Level FlightAware Approximate
Wed 08:23:00 PM 20.7766 -17.7255 305° West  Level FlightAware Approximate
Wed 08:24:00 PM 20.8426 -17.8269 305° West  Level FlightAware Approximate
Wed 08:25:00 PM 20.9086 -17.9284 305° West  Level FlightAware Approximate
Wed 08:26:00 PM 20.9746 -18.0300 305° West  Level FlightAware Approximate
Wed 08:27:00 PM 21.0404 -18.1317 305° West  Level FlightAware Approximate
Wed 08:28:00 PM 21.1062 -18.2335 305° West  Level FlightAware Approximate
Wed 08:29:00 PM 21.1719 -18.3354 305° West  Level FlightAware Approximate
Wed 08:30:00 PM 21.2376 -18.4373 305° West  Level FlightAware Approximate
Wed 08:31:00 PM 21.3032 -18.5394 305° West  Level FlightAware Approximate
Wed 08:32:00 PM 21.3688 -18.6415 305° West  Level FlightAware Approximate
Wed 08:33:00 PM 21.4343 -18.7437 305° West  Level FlightAware Approximate
Wed 08:34:00 PM 21.4998 -18.8461 305° West  Level FlightAware Approximate
Wed 08:35:00 PM 21.5651 -18.9485 304° West  Level FlightAware Approximate
Wed 08:36:00 PM 21.6304 -19.0510 304° West  Level FlightAware Approximate
Wed 08:37:00 PM 21.6957 -19.1536 304° West  Level FlightAware Approximate
Wed 08:38:00 PM 21.7609 -19.2563 304° West  Level FlightAware Approximate
Wed 08:39:00 PM 21.8260 -19.3591 304° West  Level FlightAware Approximate
Wed 08:40:00 PM 21.8910 -19.4620 304° West  Level FlightAware Approximate
Wed 08:41:00 PM 21.9560 -19.5650 304° West  Level FlightAware Approximate
Wed 08:42:00 PM 22.0210 -19.6681 304° West  Level FlightAware Approximate
Wed 08:43:00 PM 22.0858 -19.7712 304° West  Level FlightAware Approximate
Wed 08:44:00 PM 22.1506 -19.8745 304° West  Level FlightAware Approximate
Wed 08:45:00 PM 22.2153 -19.9778 304° West  Level FlightAware Approximate
Wed 08:46:00 PM 22.2800 -20.0813 304° West  Level FlightAware Approximate
Wed 08:47:00 PM 22.3446 -20.1848 304° West  Level FlightAware Approximate
Wed 08:48:00 PM 22.4092 -20.2885 304° West  Level FlightAware Approximate
Wed 08:49:00 PM 22.4736 -20.3922 304° West  Level FlightAware Approximate
Wed 08:50:00 PM 22.5380 -20.4961 304° West  Level FlightAware Approximate
Wed 08:51:00 PM 22.6024 -20.6000 304° West  Level FlightAware Approximate
Wed 08:52:00 PM 22.6667 -20.7040 304° West  Level FlightAware Approximate
Wed 08:53:00 PM 22.7309 -20.8081 304° West  Level FlightAware Approximate
Wed 08:54:00 PM 22.7950 -20.9124 304° West  Level FlightAware Approximate
Wed 08:55:00 PM 22.8591 -21.0167 304° West  Level FlightAware Approximate
Wed 08:56:00 PM 22.9231 -21.1211 304° West  Level FlightAware Approximate
Wed 08:57:00 PM 22.9870 -21.2256 304° West  Level FlightAware Approximate
Wed 08:58:00 PM 23.0508 -21.3303 304° West  Level FlightAware Approximate
Wed 08:59:00 PM 23.1147 -21.4350 304° West  Level FlightAware Approximate
Wed 09:00:00 PM 23.1784 -21.5398 303° West  Level FlightAware Approximate
Wed 09:01:00 PM 23.2420 -21.6447 303° West  Level FlightAware Approximate
Wed 09:02:00 PM 23.3056 -21.7497 303° West  Level FlightAware Approximate
Wed 09:03:00 PM 23.3692 -21.8549 303° West  Level FlightAware Approximate
Wed 09:04:00 PM 23.4326 -21.9601 303° West  Level FlightAware Approximate
Wed 09:05:00 PM 23.4961 -22.0655 303° West  Level FlightAware Approximate
Wed 09:06:00 PM 23.5595 -22.1711 303° West  Level FlightAware Approximate
Wed 09:07:00 PM 23.6228 -22.2768 303° West  Level FlightAware Approximate
Wed 09:08:00 PM 23.6860 -22.3825 303° West  Level FlightAware Approximate
Wed 09:09:00 PM 23.7492 -22.4884 303° West  Level FlightAware Approximate
Wed 09:10:00 PM 23.8123 -22.5944 303° West  Level FlightAware Approximate
Wed 09:11:00 PM 23.8753 -22.7005 303° West  Level FlightAware Approximate
Wed 09:12:00 PM 23.9383 -22.8067 303° West  Level FlightAware Approximate
Wed 09:13:00 PM 24.0012 -22.9129 303° West  Level FlightAware Approximate
Wed 09:14:00 PM 24.0640 -23.0193 303° West  Level FlightAware Approximate
Wed 09:15:00 PM 24.1267 -23.1258 303° West  Level FlightAware Approximate
Wed 09:16:00 PM 24.1894 -23.2324 303° West  Level FlightAware Approximate
Wed 09:17:00 PM 24.2520 -23.3391 303° West  Level FlightAware Approximate
Wed 09:18:00 PM 24.3145 -23.4459 303° West  Level FlightAware Approximate
Wed 09:19:00 PM 24.3769 -23.5528 303° West  Level FlightAware Approximate
Wed 09:20:00 PM 24.4393 -23.6598 303° West  Level FlightAware Approximate
Wed 09:21:00 PM 24.5016 -23.7670 303° West  Level FlightAware Approximate
Wed 09:22:00 PM 24.5638 -23.8742 303° West  Level FlightAware Approximate
Wed 09:23:00 PM 24.6259 -23.9815 303° West  Level FlightAware Approximate
Wed 09:24:00 PM 24.6880 -24.0890 302° West  Level FlightAware Approximate
Wed 09:25:00 PM 24.7500 -24.1965 302° West  Level FlightAware Approximate
Wed 09:26:00 PM 24.8119 -24.3042 302° West  Level FlightAware Approximate
Wed 09:27:00 PM 24.8737 -24.4119 302° West  Level FlightAware Approximate
Wed 09:28:00 PM 24.9355 -24.5198 302° West  Level FlightAware Approximate
Wed 09:29:00 PM 24.9972 -24.6278 302° West  Level FlightAware Approximate
Wed 09:30:00 PM 25.0588 -24.7359 302° West  Level FlightAware Approximate
Wed 09:31:00 PM 25.1203 -24.8441 302° West  Level FlightAware Approximate
Wed 09:32:00 PM 25.1817 -24.9524 302° West  Level FlightAware Approximate
Wed 09:33:00 PM 25.2431 -25.0608 302° West  Level FlightAware Approximate
Wed 09:34:00 PM 25.3044 -25.1693 302° West  Level FlightAware Approximate
Wed 09:35:00 PM 25.3656 -25.2780 302° West  Level FlightAware Approximate
Wed 09:36:00 PM 25.4267 -25.3867 302° West  Level FlightAware Approximate
Wed 09:37:00 PM 25.4877 -25.4956 302° West  Level FlightAware Approximate
Wed 09:38:00 PM 25.5487 -25.6046 302° West  Level FlightAware Approximate
Wed 09:39:00 PM 25.6096 -25.7136 302° West  Level FlightAware Approximate
Wed 09:40:00 PM 25.6704 -25.8228 302° West  Level FlightAware Approximate
Wed 09:41:00 PM 25.7311 -25.9321 302° West  Level FlightAware Approximate
Wed 09:42:00 PM 25.7917 -26.0415 302° West  Level FlightAware Approximate
Wed 09:43:00 PM 25.8523 -26.1511 302° West  Level FlightAware Approximate
Wed 09:44:00 PM 25.9128 -26.2607 302° West  Level FlightAware Approximate
Wed 09:45:00 PM 25.9732 -26.3704 301° West  Level FlightAware Approximate
Wed 09:46:00 PM 26.0335 -26.4803 301° West  Level FlightAware Approximate
Wed 09:47:00 PM 26.0937 -26.5903 301° West  Level FlightAware Approximate
Wed 09:48:00 PM 26.1538 -26.7004 301° West  Level FlightAware Approximate
Wed 09:49:00 PM 26.2139 -26.8106 301° West  Level FlightAware Approximate
Wed 09:50:00 PM 26.2739 -26.9209 301° West  Level FlightAware Approximate
Wed 09:51:00 PM 26.3338 -27.0313 301° West  Level FlightAware Approximate
Wed 09:52:00 PM 26.3936 -27.1418 301° West  Level FlightAware Approximate
Wed 09:53:00 PM 26.4533 -27.2525 301° West  Level FlightAware Approximate
Wed 09:54:00 PM 26.5129 -27.3633 301° West  Level FlightAware Approximate
Wed 09:55:00 PM 26.5725 -27.4742 301° West  Level FlightAware Approximate
Wed 09:56:00 PM 26.6320 -27.5852 301° West  Level FlightAware Approximate
Wed 09:57:00 PM 26.6913 -27.6963 301° West  Level FlightAware Approximate
Wed 09:58:00 PM 26.7506 -27.8075 301° West  Level FlightAware Approximate
Wed 09:59:00 PM 26.8098 -27.9189 301° West  Level FlightAware Approximate
Wed 10:00:00 PM 26.8689 -28.0303 301° West  Level FlightAware Approximate
Wed 10:01:00 PM 26.9280 -28.1419 301° West  Level FlightAware Approximate
Wed 10:02:00 PM 26.9869 -28.2536 301° West  Level FlightAware Approximate
Wed 10:03:00 PM 27.0458 -28.3654 301° West  Level FlightAware Approximate
Wed 10:04:00 PM 27.1045 -28.4774 301° West  Level FlightAware Approximate
Wed 10:05:00 PM 27.1632 -28.5894 300° West  Level FlightAware Approximate
Wed 10:06:00 PM 27.2218 -28.7016 300° West  Level FlightAware Approximate
Wed 10:07:00 PM 27.2803 -28.8139 300° West  Level FlightAware Approximate
Wed 10:08:00 PM 27.3387 -28.9263 300° West  Level FlightAware Approximate
Wed 10:09:00 PM 27.3970 -29.0388 300° West  Level FlightAware Approximate
Wed 10:10:00 PM 27.4553 -29.1514 300° West  Level FlightAware Approximate
Wed 10:11:00 PM 27.5134 -29.2642 300° West  Level FlightAware Approximate
Wed 10:12:00 PM 27.5714 -29.3771 300° West  Level FlightAware Approximate
Wed 10:13:00 PM 27.6294 -29.4901 300° West  Level FlightAware Approximate
Wed 10:14:00 PM 27.6873 -29.6032 300° West  Level FlightAware Approximate
Wed 10:15:00 PM 27.7450 -29.7164 300° West  Level FlightAware Approximate
Wed 10:16:00 PM 27.8027 -29.8298 300° West  Level FlightAware Approximate
Wed 10:17:00 PM 27.8603 -29.9433 300° West  Level FlightAware Approximate
Wed 10:18:00 PM 27.9178 -30.0569 300° West  Level FlightAware Approximate
Wed 10:19:00 PM 27.9752 -30.1706 300° West  Level FlightAware Approximate
Wed 10:20:00 PM 28.0325 -30.2844 300° West  Level FlightAware Approximate
Wed 10:21:00 PM 28.0897 -30.3984 300° West  Level FlightAware Approximate
Wed 10:22:00 PM 28.1468 -30.5125 300° West  Level FlightAware Approximate
Wed 10:23:00 PM 28.2039 -30.6267 300° West  Level FlightAware Approximate
Wed 10:24:00 PM 28.2608 -30.7410 300° West  Level FlightAware Approximate
Wed 10:25:00 PM 28.3176 -30.8554 299° West  Level FlightAware Approximate
Wed 10:26:00 PM 28.3744 -30.9700 299° West  Level FlightAware Approximate
Wed 10:27:00 PM 28.4310 -31.0847 299° West  Level FlightAware Approximate
Wed 10:28:00 PM 28.4876 -31.1995 299° West  Level FlightAware Approximate
Wed 10:29:00 PM 28.5440 -31.3145 299° West  Level FlightAware Approximate
Wed 10:30:00 PM 28.6003 -31.4295 299° West  Level FlightAware Approximate
Wed 10:31:00 PM 28.6566 -31.5447 299° West  Level FlightAware Approximate
Wed 10:32:00 PM 28.7128 -31.6600 299° West  Level FlightAware Approximate
Wed 10:33:00 PM 28.7688 -31.7754 299° West  Level FlightAware Approximate
Wed 10:34:00 PM 28.8248 -31.8910 299° West  Level FlightAware Approximate
Wed 10:35:00 PM 28.8806 -32.0067 299° West  Level FlightAware Approximate
Wed 10:36:00 PM 28.9364 -32.1225 299° West  Level FlightAware Approximate
Wed 10:37:00 PM 28.9921 -32.2384 299° West  Level FlightAware Approximate
Wed 10:38:00 PM 29.0476 -32.3545 299° West  Level FlightAware Approximate
Wed 10:39:00 PM 29.1033 -32.4710 299° West  Level FlightAware Approximate
Wed 10:40:00 PM 29.1588 -32.5876 299° West  Level FlightAware Approximate
Wed 10:41:00 PM 29.2142 -32.7043 299° West  Level FlightAware Approximate
Wed 10:42:00 PM 29.2695 -32.8212 299° West  Level FlightAware Approximate
Wed 10:43:00 PM 29.3247 -32.9382 298° West  Level FlightAware Approximate
Wed 10:44:00 PM 29.3798 -33.0554 298° West  Level FlightAware Approximate
Wed 10:45:00 PM 29.4348 -33.1726 298° West  Level FlightAware Approximate
Wed 10:46:00 PM 29.4897 -33.2900 298° West  Level FlightAware Approximate
Wed 10:47:00 PM 29.5445 -33.4075 298° West  Level FlightAware Approximate
Wed 10:48:00 PM 29.5992 -33.5251 298° West  Level FlightAware Approximate
Wed 10:49:00 PM 29.6538 -33.6429 298° West  Level FlightAware Approximate
Wed 10:50:00 PM 29.7083 -33.7608 298° West  Level FlightAware Approximate
Wed 10:51:00 PM 29.7627 -33.8788 298° West  Level FlightAware Approximate
Wed 10:52:00 PM 29.8170 -33.9969 298° West  Level FlightAware Approximate
Wed 10:53:00 PM 29.8711 -34.1152 298° West  Level FlightAware Approximate
Wed 10:54:00 PM 29.9252 -34.2336 298° West  Level FlightAware Approximate
Wed 10:55:00 PM 29.9792 -34.3521 298° West  Level FlightAware Approximate
Wed 10:56:00 PM 30.0330 -34.4708 298° West  Level FlightAware Approximate
Wed 10:57:00 PM 30.0868 -34.5896 298° West  Level FlightAware Approximate
Wed 10:58:00 PM 30.1404 -34.7085 298° West  Level FlightAware Approximate
Wed 10:59:00 PM 30.1940 -34.8276 298° West  Level FlightAware Approximate
Wed 11:00:00 PM 30.2474 -34.9467 297° West  Level FlightAware Approximate
Wed 11:01:00 PM 30.3007 -35.0661 297° West  Level FlightAware Approximate
Wed 11:02:00 PM 30.3539 -35.1855 297° West  Level FlightAware Approximate
Wed 11:03:00 PM 30.4070 -35.3051 297° West  Level FlightAware Approximate
Wed 11:04:00 PM 30.4600 -35.4248 297° West  Level FlightAware Approximate
Wed 11:05:00 PM 30.5129 -35.5446 297° West  Level FlightAware Approximate
Wed 11:06:00 PM 30.5657 -35.6646 297° West  Level FlightAware Approximate
Wed 11:07:00 PM 30.6184 -35.7846 297° West  Level FlightAware Approximate
Wed 11:08:00 PM 30.6709 -35.9049 297° West  Level FlightAware Approximate
Wed 11:09:00 PM 30.7234 -36.0252 297° West  Level FlightAware Approximate
Wed 11:10:00 PM 30.7757 -36.1457 297° West  Level FlightAware Approximate
Wed 11:11:00 PM 30.8279 -36.2663 297° West  Level FlightAware Approximate
Wed 11:12:00 PM 30.8800 -36.3870 297° West  Level FlightAware Approximate
Wed 11:13:00 PM 30.9320 -36.5079 297° West  Level FlightAware Approximate
Wed 11:14:00 PM 30.9839 -36.6289 297° West  Level FlightAware Approximate
Wed 11:15:00 PM 31.0357 -36.7500 297° West  Level FlightAware Approximate
Wed 11:16:00 PM 31.0873 -36.8713 296° West  Level FlightAware Approximate
Wed 11:17:00 PM 31.1389 -36.9927 296° West  Level FlightAware Approximate
Wed 11:18:00 PM 31.1903 -37.1142 296° West  Level FlightAware Approximate
Wed 11:19:00 PM 31.2416 -37.2359 296° West  Level FlightAware Approximate
Wed 11:20:00 PM 31.2744 -37.3661 296° West  Level Estimated
Wed 11:21:00 PM 31.3265 -37.4874 297° West  Level FlightAware Approximate
Wed 11:22:00 PM 31.3784 -37.6089 297° West  Level FlightAware Approximate
Wed 11:23:00 PM 31.4303 -37.7305 297° West  Level FlightAware Approximate
Wed 11:24:00 PM 31.4820 -37.8522 297° West  Level FlightAware Approximate
Wed 11:25:00 PM 31.5336 -37.9741 296° West  Level FlightAware Approximate
Wed 11:26:00 PM 31.5851 -38.0961 296° West  Level FlightAware Approximate
Wed 11:27:00 PM 31.6365 -38.2182 296° West  Level FlightAware Approximate
Wed 11:28:00 PM 31.6679 -38.3494 295° West  Level Estimated
Wed 11:29:00 PM 31.7187 -38.4720 296° West  Level FlightAware Approximate
Wed 11:30:00 PM 31.7694 -38.5947 296° West  Level FlightAware Approximate
Wed 11:31:00 PM 31.8200 -38.7175 296° West  Level FlightAware Approximate
Wed 11:32:00 PM 31.8704 -38.8405 296° West  Level FlightAware Approximate
Wed 11:33:00 PM 31.9208 -38.9636 296° West  Level FlightAware Approximate
Wed 11:34:00 PM 31.9710 -39.0869 296° West  Level FlightAware Approximate
Wed 11:35:00 PM 32.0211 -39.2103 296° West  Level FlightAware Approximate
Wed 11:36:00 PM 32.0710 -39.3338 296° West  Level FlightAware Approximate
Wed 11:37:00 PM 32.1209 -39.4575 295° West  Level FlightAware Approximate
Wed 11:38:00 PM 32.1706 -39.5813 295° West  Level FlightAware Approximate
Wed 11:39:00 PM 32.2202 -39.7052 295° West  Level FlightAware Approximate
Wed 11:40:00 PM 32.2697 -39.8293 295° West  Level FlightAware Approximate
Wed 11:41:00 PM 32.3191 -39.9534 295° West  Level FlightAware Approximate
Wed 11:42:00 PM 32.3683 -40.0778 295° West  Level FlightAware Approximate
Wed 11:43:00 PM 32.4174 -40.2023 295° West  Level FlightAware Approximate
Wed 11:44:00 PM 32.4664 -40.3269 295° West  Level FlightAware Approximate
Wed 11:45:00 PM 32.5153 -40.4516 295° West  Level FlightAware Approximate
Wed 11:46:00 PM 32.5641 -40.5765 295° West  Level FlightAware Approximate
Wed 11:47:00 PM 32.6127 -40.7015 295° West  Level FlightAware Approximate
Wed 11:48:00 PM 32.6612 -40.8266 295° West  Level FlightAware Approximate
Wed 11:49:00 PM 32.7096 -40.9519 295° West  Level FlightAware Approximate
Wed 11:50:00 PM 32.7579 -41.0773 295° West  Level FlightAware Approximate
Wed 11:51:00 PM 32.8060 -41.2029 295° West  Level FlightAware Approximate
Wed 11:52:00 PM 32.8540 -41.3286 294° West  Level FlightAware Approximate
Wed 11:53:00 PM 32.9019 -41.4544 294° West  Level FlightAware Approximate
Wed 11:54:00 PM 32.9496 -41.5804 294° West  Level FlightAware Approximate
Wed 11:55:00 PM 32.9973 -41.7065 294° West  Level FlightAware Approximate
Wed 11:56:00 PM 33.0448 -41.8327 294° West  Level FlightAware Approximate
Wed 11:57:00 PM 33.0921 -41.9591 294° West  Level FlightAware Approximate
Wed 11:58:00 PM 33.1394 -42.0856 294° West  Level FlightAware Approximate
Wed 11:59:00 PM 33.1865 -42.2122 294° West  Level FlightAware Approximate
Thu 12:00:00 AM 33.2335 -42.3390 294° West  Level FlightAware Approximate
Thu 12:01:00 AM 33.2804 -42.4659 294° West  Level FlightAware Approximate
Thu 12:02:00 AM 33.3054 -42.6015 292° West  Level Estimated
Thu 12:03:00 AM 33.3516 -42.7288 294° West  Level FlightAware Approximate
Thu 12:04:00 AM 33.3977 -42.8563 293° West  Level FlightAware Approximate
Thu 12:05:00 AM 33.4436 -42.9839 293° West  Level FlightAware Approximate
Thu 12:06:00 AM 33.4894 -43.1117 293° West  Level FlightAware Approximate
Thu 12:07:00 AM 33.5351 -43.2396 293° West  Level FlightAware Approximate
Thu 12:08:00 AM 33.5806 -43.3676 293° West  Level FlightAware Approximate
Thu 12:09:00 AM 33.6261 -43.4958 293° West  Level FlightAware Approximate
Thu 12:10:00 AM 33.6713 -43.6241 293° West  Level FlightAware Approximate
Thu 12:11:00 AM 33.7165 -43.7526 293° West  Level FlightAware Approximate
Thu 12:12:00 AM 33.7615 -43.8811 293° West  Level FlightAware Approximate
Thu 12:13:00 AM 33.8064 -44.0099 293° West  Level FlightAware Approximate
Thu 12:14:00 AM 33.8512 -44.1387 293° West  Level FlightAware Approximate
Thu 12:15:00 AM 33.8958 -44.2677 293° West  Level FlightAware Approximate
Thu 12:16:00 AM 33.9403 -44.3968 293° West  Level FlightAware Approximate
Thu 12:17:00 AM 33.9846 -44.5261 293° West  Level FlightAware Approximate
Thu 12:18:00 AM 34.0288 -44.6554 292° West  Level FlightAware Approximate
Thu 12:19:00 AM 34.0729 -44.7850 292° West  Level FlightAware Approximate
Thu 12:20:00 AM 34.1168 -44.9146 292° West  Level FlightAware Approximate
Thu 12:21:00 AM 34.1606 -45.0444 292° West  Level FlightAware Approximate
Thu 12:22:00 AM 34.2043 -45.1744 292° West  Level FlightAware Approximate
Thu 12:23:00 AM 34.2478 -45.3044 292° West  Level FlightAware Approximate
Thu 12:24:00 AM 34.2912 -45.4346 292° West  Level FlightAware Approximate
Thu 12:25:00 AM 34.3345 -45.5649 292° West  Level FlightAware Approximate
Thu 12:26:00 AM 34.3776 -45.6954 292° West  Level FlightAware Approximate
Thu 12:27:00 AM 34.4206 -45.8260 292° West  Level FlightAware Approximate
Thu 12:28:00 AM 34.4634 -45.9567 292° West  Level FlightAware Approximate
Thu 12:29:00 AM 34.5061 -46.0876 292° West  Level FlightAware Approximate
Thu 12:30:00 AM 34.5487 -46.2186 292° West  Level FlightAware Approximate
Thu 12:31:00 AM 34.5911 -46.3497 291° West  Level FlightAware Approximate
Thu 12:32:00 AM 34.6334 -46.4810 291° West  Level FlightAware Approximate
Thu 12:33:00 AM 34.6755 -46.6124 291° West  Level FlightAware Approximate
Thu 12:34:00 AM 34.7175 -46.7439 291° West  Level FlightAware Approximate
Thu 12:35:00 AM 34.7594 -46.8756 291° West  Level FlightAware Approximate
Thu 12:36:00 AM 34.8011 -47.0074 291° West  Level FlightAware Approximate
Thu 12:37:00 AM 34.8427 -47.1394 291° West  Level FlightAware Approximate
Thu 12:38:00 AM 34.8841 -47.2714 291° West  Level FlightAware Approximate
Thu 12:39:00 AM 34.9254 -47.4036 291° West  Level FlightAware Approximate
Thu 12:40:00 AM 34.9665 -47.5359 291° West  Level FlightAware Approximate
Thu 12:41:00 AM 35.0075 -47.6684 291° West  Level FlightAware Approximate
Thu 12:42:00 AM 35.0484 -47.8010 291° West  Level FlightAware Approximate
Thu 12:43:00 AM 35.0891 -47.9338 291° West  Level FlightAware Approximate
Thu 12:43:36 AM 33.0000 -40.0000 299° West 429 494 36,000  Level New York Oceanic (ODAPS)
Thu 12:44:00 AM 35.1297 -48.0666 291° West  Level FlightAware Approximate
Thu 12:45:00 AM 35.1701 -48.1996 290° West  Level FlightAware Approximate
Thu 12:46:00 AM 35.2104 -48.3327 290° West  Level FlightAware Approximate
Thu 12:47:00 AM 35.2505 -48.4660 290° West  Level FlightAware Approximate
Thu 12:48:00 AM 35.2906 -48.5998 290° West  Level FlightAware Approximate
Thu 12:49:00 AM 35.3305 -48.7337 290° West  Level FlightAware Approximate
Thu 12:49:57 AM 33.3833 -40.8167 298° West 430 495 36,000  Level New York Oceanic (ODAPS)
Thu 12:50:00 AM 33.3964 -40.8689 298° West 429 494 36,000  Level FlightAware Transoceanic
Thu 12:51:00 AM 33.4526 -40.9936 298° West 429 494 36,000  Level FlightAware Transoceanic
Thu 12:52:00 AM 33.5086 -41.1186 298° West 429 494 36,000  Level FlightAware Transoceanic
Thu 12:53:00 AM 33.5645 -41.2437 298° West 429 494 36,000  Level FlightAware Transoceanic
Thu 12:54:00 AM 33.6202 -41.3689 298° West 429 494 36,000  Level FlightAware Transoceanic
Thu 12:55:00 AM 33.6759 -41.4943 298° West 429 494 36,000  Level FlightAware Transoceanic
Thu 12:56:00 AM 33.7245 -41.5829 298° West 430 495 36,000  Level FlightAware Transoceanic
Thu 12:57:00 AM 33.7809 -41.7112 298° West 430 495 36,000  Level FlightAware Transoceanic
Thu 12:58:00 AM 33.8372 -41.8396 298° West 430 495 36,000  Level FlightAware Transoceanic
Thu 12:59:00 AM 33.8933 -41.9683 298° West 430 495 36,000  Level FlightAware Transoceanic
Thu 01:00:00 AM 33.9494 -42.0970 298° West 430 495 36,000  Level FlightAware Transoceanic
Thu 01:01:00 AM 34.0052 -42.2260 298° West 430 495 36,000  Level FlightAware Transoceanic
Thu 01:02:00 AM 34.0610 -42.3551 297° West 430 495 36,000  Level FlightAware Transoceanic
Thu 01:03:00 AM 34.1166 -42.4845 297° West 430 495 36,000  Level FlightAware Transoceanic
Thu 01:03:59 AM 34.1500 -42.5833 297° West 429 494 36,000  Level New York Oceanic (ODAPS)
Thu 01:04:00 AM 34.1720 -42.6139 297° West 430 495 36,000  Level FlightAware Transoceanic
Thu 01:05:00 AM 34.2274 -42.7436 297° West 430 495 36,000  Level FlightAware Transoceanic
Thu 01:06:00 AM 34.2826 -42.8734 297° West 430 495 36,000  Level FlightAware Transoceanic
Thu 01:07:00 AM 34.3376 -43.0034 297° West 430 495 36,000  Level FlightAware Transoceanic
Thu 01:08:00 AM 34.3925 -43.1335 297° West 430 495 36,000  Level FlightAware Transoceanic
Thu 01:09:00 AM 34.4473 -43.2639 297° West 430 495 36,000  Level FlightAware Transoceanic
Thu 01:10:00 AM 34.5239 -43.4658 297° West 429 494 36,000  Level FlightAware Transoceanic
Thu 01:11:00 AM 34.5769 -43.5925 297° West 429 494 36,000  Level FlightAware Transoceanic
Thu 01:12:00 AM 34.6296 -43.7193 297° West 429 494 36,000  Level FlightAware Transoceanic
Thu 01:13:00 AM 34.6823 -43.8464 297° West 429 494 36,000  Level FlightAware Transoceanic
Thu 01:14:00 AM 34.7348 -43.9735 297° West 429 494 36,000  Level FlightAware Transoceanic
Thu 01:15:00 AM 34.7871 -44.1009 297° West 429 494 36,000  Level FlightAware Transoceanic
Thu 01:16:00 AM 34.8394 -44.2284 296° West 429 494 36,000  Level FlightAware Transoceanic
Thu 01:17:00 AM 34.8915 -44.3561 296° West 429 494 36,000  Level FlightAware Transoceanic
Thu 01:17:42 AM 34.9000 -44.3667 296° West 424 488 36,000  Level New York Oceanic (ODAPS)
Thu 01:18:00 AM 34.9435 -44.4839 296° West 429 494 36,000  Level FlightAware Transoceanic
Thu 01:19:00 AM 34.9953 -44.6119 296° West 429 494 36,000  Level FlightAware Transoceanic
Thu 01:20:00 AM 35.0470 -44.7401 296° West 429 494 36,000  Level FlightAware Transoceanic
Thu 01:21:00 AM 35.0986 -44.8684 296° West 429 494 36,000  Level FlightAware Transoceanic
Thu 01:22:00 AM 35.1500 -44.9969 296° West 429 494 36,000  Level FlightAware Transoceanic
Thu 01:23:00 AM 35.2086 -45.1347 296° West 424 488 36,000  Level FlightAware Transoceanic
Thu 01:24:00 AM 35.2595 -45.2633 296° West 424 488 36,000  Level FlightAware Transoceanic
Thu 01:25:00 AM 35.3104 -45.3921 296° West 424 488 36,000  Level FlightAware Transoceanic
Thu 01:26:00 AM 35.3610 -45.5210 296° West 424 488 36,000  Level FlightAware Transoceanic
Thu 01:27:00 AM 35.4116 -45.6500 296° West 424 488 36,000  Level FlightAware Transoceanic
Thu 01:28:00 AM 35.4620 -45.7792 296° West 424 488 36,000  Level FlightAware Transoceanic
Thu 01:29:00 AM 35.5123 -45.9086 295° West 424 488 36,000  Level FlightAware Transoceanic
Thu 01:30:00 AM 35.5624 -46.0382 295° West 424 488 36,000  Level FlightAware Transoceanic
Thu 01:31:00 AM 35.6124 -46.1679 295° West 424 488 36,000  Level FlightAware Transoceanic
Thu 01:31:33 AM 35.5833 -46.1167 295° West 419 482 36,000  Level New York Oceanic (ODAPS)
Thu 01:32:00 AM 35.6623 -46.2977 295° West 424 488 36,000  Level FlightAware Transoceanic
Thu 01:33:00 AM 35.7120 -46.4278 295° West 424 488 36,000  Level FlightAware Transoceanic
Thu 01:34:00 AM 35.7616 -46.5580 295° West 424 488 36,000  Level FlightAware Transoceanic
Thu 01:35:00 AM 35.8110 -46.6883 295° West 424 488 36,000  Level FlightAware Transoceanic
Thu 01:36:00 AM 35.8603 -46.8189 295° West 424 488 36,000  Level FlightAware Transoceanic
Thu 01:37:00 AM 35.8766 -46.8820 295° West 419 482 36,000  Level FlightAware Transoceanic
Thu 01:38:00 AM 35.9250 -47.0102 295° West 419 482 36,000  Level FlightAware Transoceanic
Thu 01:39:00 AM 35.9733 -47.1384 295° West 419 482 36,000  Level FlightAware Transoceanic
Thu 01:40:00 AM 36.0214 -47.2668 295° West 419 482 36,000  Level FlightAware Transoceanic
Thu 01:41:00 AM 36.0694 -47.3954 295° West 419 482 36,000  Level FlightAware Transoceanic
Thu 01:42:00 AM 36.1173 -47.5242 295° West 419 482 36,000  Level FlightAware Transoceanic
Thu 01:43:00 AM 36.1650 -47.6531 295° West 419 482 36,000  Level FlightAware Transoceanic
Thu 01:44:00 AM 36.2126 -47.7821 295° West 419 482 36,000  Level FlightAware Transoceanic
Thu 01:45:00 AM 36.2601 -47.9113 294° West 419 482 36,000  Level FlightAware Transoceanic
Thu 01:45:37 AM 36.2667 -47.9333 294° West 412 474 36,000  Level New York Oceanic (ODAPS)
Thu 01:46:00 AM 36.3074 -48.0407 294° West 419 482 36,000  Level FlightAware Transoceanic
Thu 01:47:00 AM 36.3545 -48.1702 294° West 419 482 36,000  Level FlightAware Transoceanic
Thu 01:48:00 AM 36.4016 -48.2999 294° West 419 482 36,000  Level FlightAware Transoceanic
Thu 01:49:00 AM 36.4484 -48.4297 294° West 419 482 36,000  Level FlightAware Transoceanic
Thu 01:50:00 AM 36.4952 -48.5597 294° West 419 482 36,000  Level FlightAware Transoceanic
Thu 01:51:00 AM 36.5458 -48.7037 294° West 412 474 36,000  Level FlightAware Transoceanic
Thu 01:52:00 AM 36.5919 -48.8327 294° West 412 474 36,000  Level FlightAware Transoceanic
Thu 01:53:00 AM 36.6378 -48.9618 294° West 412 474 36,000  Level FlightAware Transoceanic
Thu 01:54:00 AM 36.6836 -49.0910 294° West 412 474 36,000  Level FlightAware Transoceanic
Thu 01:55:00 AM 36.7292 -49.2204 294° West 412 474 36,000  Level FlightAware Transoceanic
Thu 01:56:00 AM 36.7747 -49.3499 294° West 412 474 36,000  Level FlightAware Transoceanic
Thu 01:57:00 AM 36.8200 -49.4796 294° West 412 474 36,000  Level FlightAware Transoceanic
Thu 01:58:00 AM 36.8652 -49.6095 293° West 412 474 36,000  Level FlightAware Transoceanic
Thu 01:59:00 AM 36.9103 -49.7395 293° West 412 474 36,000  Level FlightAware Transoceanic
Thu 01:59:41 AM 36.9167 -49.7500 293° West 421 484 36,000  Level New York Oceanic (ODAPS)
Thu 02:00:00 AM 36.9552 -49.8697 293° West 412 474 36,000  Level FlightAware Transoceanic
Thu 02:01:00 AM 37.0000 -50.0000 280° West 412 474 36,000  Level FlightAware Transoceanic
Thu 02:01:38 AM 37.0000 -50.0000 280° West 431 496 36,000  Level New York Oceanic (ODAPS)
Thu 02:02:00 AM 37.0211 -50.1470 280° West 412 474 36,000  Level FlightAware Transoceanic
Thu 02:03:00 AM 37.0420 -50.2942 280° West 412 474 36,000  Level FlightAware Transoceanic
Thu 02:04:00 AM 37.0626 -50.4414 280° West 412 474 36,000  Level FlightAware Transoceanic
Thu 02:05:00 AM 37.0832 -50.5886 280° West 412 474 36,000  Level FlightAware Transoceanic
Thu 02:06:00 AM 37.1035 -50.7360 280° West 421 484 36,000  Level FlightAware Transoceanic
Thu 02:07:00 AM 37.1236 -50.8834 280° West 431 496 36,000  Level FlightAware Transoceanic
Thu 02:08:00 AM 37.1436 -51.0309 280° West 431 496 36,000  Level FlightAware Transoceanic
Thu 02:09:00 AM 37.1634 -51.1786 280° West 431 496 36,000  Level FlightAware Transoceanic
Thu 02:10:00 AM 37.1830 -51.3262 279° West 431 496 36,000  Level FlightAware Transoceanic
Thu 02:11:00 AM 37.2024 -51.4740 279° West 431 496 36,000  Level FlightAware Transoceanic
Thu 02:12:00 AM 37.2217 -51.6218 279° West 431 496 36,000  Level FlightAware Transoceanic
Thu 02:13:00 AM 37.2407 -51.7697 279° West 431 496 36,000  Level FlightAware Transoceanic
Thu 02:13:05 AM 37.2333 -51.7667 279° West 429 494 36,000  Level New York Oceanic (ODAPS)
Thu 02:14:00 AM 37.2596 -51.9177 279° West 431 496 36,000  Level FlightAware Transoceanic
Thu 02:15:00 AM 37.2783 -52.0657 279° West 431 496 36,000  Level FlightAware Transoceanic
Thu 02:16:00 AM 37.2968 -52.2138 279° West 431 496 36,000  Level FlightAware Transoceanic
Thu 02:17:00 AM 37.3151 -52.3620 279° West 431 496 36,000  Level FlightAware Transoceanic
Thu 02:18:00 AM 37.3332 -52.5103 279° West 431 496 36,000  Level FlightAware Transoceanic
Thu 02:19:00 AM 37.3446 -52.6558 279° West 429 494 36,000  Level FlightAware Transoceanic
Thu 02:20:00 AM 37.3625 -52.8043 279° West 429 494 36,000  Level FlightAware Transoceanic
Thu 02:21:00 AM 37.3802 -52.9528 278° West 429 494 36,000  Level FlightAware Transoceanic
Thu 02:22:00 AM 37.3978 -53.1014 278° West 429 494 36,000  Level FlightAware Transoceanic
Thu 02:23:00 AM 37.4151 -53.2501 278° West 429 494 36,000  Level FlightAware Transoceanic
Thu 02:24:00 AM 37.4323 -53.3988 278° West 429 494 36,000  Level FlightAware Transoceanic
Thu 02:25:00 AM 37.4492 -53.5476 278° West 429 494 36,000  Level FlightAware Transoceanic
Thu 02:26:00 AM 37.4660 -53.6964 278° West 429 494 36,000  Level FlightAware Transoceanic
Thu 02:26:55 AM 37.4833 -53.8167 278° West 424 488 36,000  Level New York Oceanic (ODAPS)
Thu 02:27:00 AM 37.4826 -53.8454 278° West 429 494 36,000  Level FlightAware Transoceanic
Thu 02:28:00 AM 37.4990 -53.9944 278° West 429 494 36,000  Level FlightAware Transoceanic
Thu 02:29:00 AM 37.5152 -54.1434 278° West 429 494 36,000  Level FlightAware Transoceanic
Thu 02:30:00 AM 37.5313 -54.2925 278° West 429 494 36,000  Level FlightAware Transoceanic
Thu 02:31:00 AM 37.5471 -54.4417 278° West 429 494 36,000  Level FlightAware Transoceanic
Thu 02:32:00 AM 37.5628 -54.5910 277° West 429 494 36,000  Level FlightAware Transoceanic
Thu 02:33:00 AM 37.5790 -54.7158 277° West 424 488 36,000  Level FlightAware Transoceanic
Thu 02:34:00 AM 37.5943 -54.8658 277° West 424 488 36,000  Level FlightAware Transoceanic
Thu 02:35:00 AM 37.6094 -55.0160 277° West 424 488 36,000  Level FlightAware Transoceanic
Thu 02:36:00 AM 37.6244 -55.1662 277° West 424 488 36,000  Level FlightAware Transoceanic
Thu 02:37:00 AM 37.6391 -55.3164 277° West 424 488 36,000  Level FlightAware Transoceanic
Thu 02:38:00 AM 37.6536 -55.4667 277° West 424 488 36,000  Level FlightAware Transoceanic
Thu 02:39:00 AM 37.6679 -55.6171 277° West 424 488 36,000  Level FlightAware Transoceanic
Thu 02:40:00 AM 37.6821 -55.7675 277° West 424 488 36,000  Level FlightAware Transoceanic
Thu 02:40:48 AM 37.7000 -55.8667 277° West 427 491 36,000  Level New York Oceanic (ODAPS)
Thu 02:41:00 AM 37.6960 -55.9180 277° West 424 488 36,000  Level FlightAware Transoceanic
Thu 02:42:00 AM 37.7098 -56.0686 277° West 424 488 36,000  Level FlightAware Transoceanic
Thu 02:43:00 AM 37.7234 -56.2192 276° West 424 488 36,000  Level FlightAware Transoceanic
Thu 02:44:00 AM 37.7368 -56.3698 276° West 424 488 36,000  Level FlightAware Transoceanic
Thu 02:45:00 AM 37.7499 -56.5205 276° West 424 488 36,000  Level FlightAware Transoceanic
Thu 02:46:00 AM 37.7629 -56.6713 276° West 424 488 36,000  Level FlightAware Transoceanic
Thu 02:47:00 AM 37.7791 -56.7822 276° West 427 491 36,000  Level FlightAware Transoceanic
Thu 02:48:00 AM 37.7916 -56.9349 276° West 427 491 36,000  Level FlightAware Transoceanic
Thu 02:49:00 AM 37.8039 -57.0877 276° West 427 491 36,000  Level FlightAware Transoceanic
Thu 02:50:00 AM 37.8160 -57.2406 276° West 427 491 36,000  Level FlightAware Transoceanic
Thu 02:51:00 AM 37.8279 -57.3935 276° West 427 491 36,000  Level FlightAware Transoceanic
Thu 02:52:00 AM 37.8397 -57.5465 275° West 427 491 36,000  Level FlightAware Transoceanic
Thu 02:53:00 AM 37.8512 -57.6995 275° West 427 491 36,000  Level FlightAware Transoceanic
Thu 02:54:00 AM 37.8625 -57.8526 275° West 427 491 36,000  Level FlightAware Transoceanic
Thu 02:54:45 AM 37.8667 -57.9500 275° West 436 502 36,000  Level New York Oceanic (ODAPS)
Thu 02:55:00 AM 37.8736 -58.0057 275° West 427 491 36,000  Level FlightAware Transoceanic
Thu 02:56:00 AM 37.8845 -58.1588 275° West 427 491 36,000  Level FlightAware Transoceanic
Thu 02:57:00 AM 37.8952 -58.3120 275° West 427 491 36,000  Level FlightAware Transoceanic
Thu 02:58:00 AM 37.9058 -58.4653 275° West 427 491 36,000  Level FlightAware Transoceanic
Thu 02:59:00 AM 37.9161 -58.6186 275° West 427 491 36,000  Level FlightAware Transoceanic
Thu 03:00:00 AM 37.9282 -58.8277 275° West 436 502 36,000  Level FlightAware Transoceanic
Thu 03:01:00 AM 37.9378 -58.9741 275° West 436 502 36,000  Level FlightAware Transoceanic
Thu 03:02:00 AM 37.9472 -59.1205 275° West 436 502 36,000  Level FlightAware Transoceanic
Thu 03:03:00 AM 37.9565 -59.2670 275° West 436 502 36,000  Level FlightAware Transoceanic
Thu 03:04:00 AM 37.9655 -59.4135 274° West 436 502 36,000  Level FlightAware Transoceanic
Thu 03:05:00 AM 37.9744 -59.5601 274° West 436 502 36,000  Level FlightAware Transoceanic
Thu 03:06:00 AM 37.9831 -59.7067 274° West 436 502 36,000  Level FlightAware Transoceanic
Thu 03:07:00 AM 37.9917 -59.8533 274° West 436 502 36,000  Level FlightAware Transoceanic
Thu 03:08:00 AM 38.0000 -60.0000 284° West 436 502 36,000  Level FlightAware Transoceanic
Thu 03:08:21 AM 38.0000 -60.0000 284° West 439 505 36,000  Level New York Oceanic (ODAPS)
Thu 03:08:37 AM 38.0167 -60.0500 284° West 441 507 36,000  Level New York Oceanic (ODAPS)
Thu 03:09:00 AM 38.0293 -60.1531 284° West 436 502 36,000  Level FlightAware Transoceanic
Thu 03:10:00 AM 38.0584 -60.3063 284° West 436 502 36,000  Level FlightAware Transoceanic
Thu 03:11:00 AM 38.0873 -60.4596 283° West 436 502 36,000  Level FlightAware Transoceanic
Thu 03:12:00 AM 38.1160 -60.6130 283° West 436 502 36,000  Level FlightAware Transoceanic
Thu 03:13:00 AM 38.1445 -60.7666 283° West 436 502 36,000  Level FlightAware Transoceanic
Thu 03:14:00 AM 38.1833 -60.9440 283° West 441 507 36,000  Level FlightAware Transoceanic
Thu 03:15:00 AM 38.2104 -61.0934 283° West 441 507 36,000  Level FlightAware Transoceanic
Thu 03:16:00 AM 38.2373 -61.2429 283° West 441 507 36,000  Level FlightAware Transoceanic
Thu 03:17:00 AM 38.2640 -61.3925 283° West 441 507 36,000  Level FlightAware Transoceanic
Thu 03:18:00 AM 38.2905 -61.5422 283° West 441 507 36,000  Level FlightAware Transoceanic
Thu 03:19:00 AM 38.3169 -61.6921 283° West 441 507 36,000  Level FlightAware Transoceanic
Thu 03:20:00 AM 38.3430 -61.8420 282° West 441 507 36,000  Level FlightAware Transoceanic
Thu 03:21:00 AM 38.3690 -61.9921 282° West 441 507 36,000  Level FlightAware Transoceanic
Thu 03:22:00 AM 38.3948 -62.1422 282° West 441 507 36,000 795 Level FlightAware Transoceanic
Thu 03:22:23 AM 38.4000 -62.1667 282° West 438 504 37,100  Climbing New York Oceanic (ODAPS)
Thu 03:23:00 AM 38.4204 -62.2925 282° West 441 507 36,000 -680 Descending FlightAware Transoceanic
Thu 03:24:00 AM 38.4458 -62.4429 282° West 441 507 36,000 1,132 Level FlightAware Transoceanic
Thu 03:24:46 AM 38.4500 -62.5000 282° West 440 506 38,000  Climbing New York Oceanic (ODAPS)
Thu 03:25:00 AM 38.4710 -62.5933 282° West 441 507 36,000 -1,622 Descending FlightAware Transoceanic
Thu 03:26:00 AM 38.4959 -62.7439 282° West 441 507 36,000  Level FlightAware Transoceanic
Thu 03:27:00 AM 38.5208 -62.8946 282° West 441 507 36,000 550 Level FlightAware Transoceanic
Thu 03:28:00 AM 38.5495 -63.0653 282° West 438 504 37,100 550 Climbing FlightAware Transoceanic
Thu 03:29:00 AM 38.5737 -63.2155 282° West 438 504 37,100  Level FlightAware Transoceanic
Thu 03:30:00 AM 38.5978 -63.3657 282° West 438 504 37,100 450 Level FlightAware Transoceanic
Thu 03:31:00 AM 38.6020 -63.4240 282° West 440 506 38,000 450 Climbing FlightAware Transoceanic
Thu 03:32:00 AM 38.6267 -63.5784 281° West 440 506 38,000  Level FlightAware Transoceanic
Thu 03:33:00 AM 38.6511 -63.7328 281° West 440 506 38,000  Level FlightAware Transoceanic
Thu 03:34:00 AM 38.6753 -63.8874 281° West 440 506 38,000  Level FlightAware Transoceanic
Thu 03:35:00 AM 38.6993 -64.0421 281° West 440 506 38,000  Level FlightAware Transoceanic
Thu 03:36:00 AM 38.7232 -64.1969 281° West 440 506 38,000  Level FlightAware Transoceanic
Thu 03:36:19 AM 38.7167 -64.1667 281° West 423 487 38,000  Level New York Oceanic (ODAPS)
Thu 03:37:00 AM 38.7468 -64.3518 281° West 440 506 38,000  Level FlightAware Transoceanic
Thu 03:38:00 AM 38.7702 -64.5068 281° West 440 506 38,000  Level FlightAware Transoceanic
Thu 03:39:00 AM 38.7934 -64.6619 281° West 440 506 38,000  Level FlightAware Transoceanic
Thu 03:40:00 AM 38.8164 -64.8171 281° West 440 506 38,000  Level FlightAware Transoceanic
Thu 03:41:00 AM 38.8392 -64.9724 281° West 440 506 38,000  Level FlightAware Transoceanic
Thu 03:42:00 AM 38.8504 -65.0579 281° West 423 487 38,000  Level FlightAware Transoceanic
Thu 03:43:00 AM 38.8720 -65.2068 281° West 423 487 38,000  Level FlightAware Transoceanic
Thu 03:44:00 AM 38.8934 -65.3557 280° West 423 487 38,000  Level FlightAware Transoceanic
Thu 03:45:00 AM 38.9147 -65.5048 280° West 423 487 38,000  Level FlightAware Transoceanic
Thu 03:46:00 AM 38.9357 -65.6539 280° West 423 487 38,000  Level FlightAware Transoceanic
Thu 03:47:00 AM 38.9566 -65.8031 280° West 423 487 38,000  Level FlightAware Transoceanic
Thu 03:48:00 AM 38.9773 -65.9525 280° West 423 487 38,000  Level FlightAware Transoceanic
Thu 03:49:00 AM 38.9978 -66.1018 280° West 423 487 38,000  Level FlightAware Transoceanic
Thu 03:50:00 AM 39.0181 -66.2513 280° West 423 487 38,000  Level FlightAware Transoceanic
Thu 03:50:14 AM 39.0167 -66.2667 280° West 508 585 38,000  Level New York Oceanic (ODAPS)
Thu 03:52:16 AM 39.3378 -66.5722 280° West 466 536 38,000  Level New York Center
Thu 03:53:18 AM 39.3053 -66.7192 254° West 460 529 38,000 -50 Level New York Center
Thu 03:54:17 AM 39.2786 -66.8628 257° West 445 512 37,900  Descending New York Center
Thu 03:55:17 AM 39.2797 -67.0236 271° West 424 488 38,000 50 Climbing New York Center
Thu 03:56:16 AM 39.2822 -67.1764 271° West 438 504 38,000  Level New York Center
Thu 03:57:17 AM 39.2764 -67.3350 267° West 443 510 38,000  Level New York Center
Thu 03:58:16 AM 39.2744 -67.4881 269° West 443 510 38,000  Level New York Center
Thu 03:59:19 AM 39.2703 -67.6464 268° West 443 510 38,000  Level New York Center
Thu 04:00:16 AM 39.2658 -67.7994 268° West 438 504 38,000  Level New York Center
Thu 04:01:16 AM 39.2633 -67.9522 269° West 438 504 38,000  Level New York Center
Thu 04:02:19 AM 39.2586 -68.1133 268° West 445 512 38,000  Level New York Center
Thu 04:03:19 AM 39.2556 -68.2636 269° West 439 505 38,000  Level New York Center
Thu 04:04:16 AM 39.2522 -68.4194 268° West 439 505 38,000  Level New York Center
Thu 04:05:18 AM 39.2469 -68.5778 268° West 445 512 38,000  Level New York Center
Thu 04:06:17 AM 39.2414 -68.7333 267° West 438 504 38,000  Level New York Center
Thu 04:07:16 AM 39.2375 -68.8836 268° West 438 504 38,000  Level New York Center
Thu 04:08:16 AM 39.2314 -69.0444 267° West 443 510 38,000  Level New York Center
Thu 04:09:16 AM 39.2253 -69.1975 267° West 438 504 38,000  Level New York Center
Thu 04:10:19 AM 39.2208 -69.3475 268° West 437 503 38,000  Level New York Center
Thu 04:11:16 AM 39.2142 -69.5031 267° West 437 503 38,000  Level New York Center
Thu 04:12:18 AM 39.1969 -69.6589 262° West 443 510 38,000  Level New York Center
Thu 04:13:17 AM 39.1814 -69.8144 263° West 443 510 38,000 -51 Level New York Center
Thu 04:14:16 AM 39.1658 -69.9700 263° West 443 510 37,900  Descending New York Center
Thu 04:15:16 AM 39.1500 -70.1228 262° West 443 510 38,000 49 Climbing New York Center
Thu 04:16:19 AM 39.1361 -70.2753 263° West 443 510 38,000  Level New York Center
Thu 04:17:17 AM 39.1242 -70.4281 264° West 443 510 38,000  Level New York Center
Thu 04:18:16 AM 39.1056 -70.5886 262° West 448 516 38,000  Level New York Center
Thu 04:19:18 AM 39.0892 -70.7411 262° West 442 509 38,000  Level New York Center
Thu 04:20:17 AM 39.0722 -70.8908 262° West 442 509 38,000  Level New York Center
Thu 04:21:17 AM 39.0572 -71.0458 263° West 442 509 38,000  Level New York Center
Thu 04:22:19 AM 39.0400 -71.2008 262° West 442 509 38,000  Level New York Center
Thu 04:23:16 AM 39.0269 -71.3317 263° West 442 509 38,000  Level New York Center
Thu 04:24:16 AM 39.0094 -71.4839 262° West 442 509 38,000  Level New York Center
Thu 04:25:16 AM 38.9939 -71.6361 263° West 437 503 38,000  Level New York Center
Thu 04:26:16 AM 38.9736 -71.7933 261° West 437 503 38,000  Level New York Center
Thu 04:27:16 AM 38.9578 -71.9400 262° West 432 497 38,000  Level New York Center
Thu 04:28:19 AM 38.9394 -72.0944 261° West 440 506 38,000  Level New York Center
Thu 04:29:18 AM 38.9228 -72.2489 262° West 445 512 38,000  Level New York Center
Thu 04:30:16 AM 38.9039 -72.4058 261° West 450 518 38,000  Level New York Center
Thu 04:31:16 AM 38.8850 -72.5575 261° West 441 507 38,000  Level New York Center
Thu 04:32:16 AM 38.8681 -72.7064 262° West 441 507 38,000  Level New York Center
Thu 04:33:17 AM 38.8486 -72.8633 261° West 447 514 38,000  Level New York Center
Thu 04:34:17 AM 38.8289 -73.0228 261° West 447 514 38,000  Level New York Center
Thu 04:36:16 AM 38.7875 -73.3331 260° West 438 504 38,000  Level Washington Center
Thu 04:37:16 AM 38.7694 -73.4881 262° West 445 512 38,000  Level Washington Center
Thu 04:38:16 AM 38.7261 -73.6358 249° West 445 512 38,000  Level Washington Center
Thu 04:39:17 AM 38.6764 -73.7753 245° Southwest 445 512 38,000  Level Washington Center
Thu 04:40:17 AM 38.6219 -73.9175 244° Southwest 445 512 38,000  Level Washington Center
Thu 04:41:16 AM 38.5719 -74.0569 245° Southwest 445 512 38,000  Level Washington Center
Thu 04:42:16 AM 38.5236 -74.1958 246° West 440 506 38,000  Level Washington Center
Thu 04:43:16 AM 38.4708 -74.3375 245° Southwest 445 512 38,000  Level Washington Center
Thu 04:44:18 AM 38.4181 -74.4786 245° Southwest 445 512 38,000  Level Washington Center
Thu 04:45:16 AM 38.3692 -74.6172 246° West 445 512 38,000  Level Washington Center
Thu 04:46:18 AM 38.3161 -74.7608 245° Southwest 445 512 38,000  Level Washington Center
Thu 04:47:18 AM 38.2669 -74.9042 246° West 445 512 38,000  Level Washington Center
Thu 04:48:16 AM 38.2136 -75.0447 244° Southwest 445 512 38,000 -50 Level Washington Center
Thu 04:49:18 AM 38.1600 -75.1797 243° Southwest 445 512 37,900  Descending Washington Center
Thu 04:50:18 AM 38.1103 -75.3253 247° West 445 512 38,000 51 Climbing Washington Center
Thu 04:51:16 AM 38.0583 -75.4600 244° Southwest 445 512 38,000  Level Washington Center
Thu 04:52:18 AM 38.0064 -75.5944 244° Southwest 445 512 38,000  Level Washington Center
Thu 04:53:16 AM 37.9542 -75.7339 245° Southwest 439 505 38,000  Level Washington Center
Thu 04:54:16 AM 37.8975 -75.8628 241° Southwest 439 505 38,000  Level Washington Center
Thu 04:55:17 AM 37.8472 -76.0019 245° Southwest 434 499 38,000  Level Washington Center
Thu 04:56:16 AM 37.7925 -76.1331 242° Southwest 429 494 38,000  Level Washington Center
Thu 04:57:19 AM 37.7417 -76.2694 245° Southwest 429 494 38,000  Level Washington Center
Thu 04:58:16 AM 37.6886 -76.4053 244° Southwest 429 494 38,000  Level Washington Center
Thu 04:59:18 AM 37.6356 -76.5386 243° Southwest 429 494 38,000  Level Washington Center
Thu 05:00:17 AM 37.5844 -76.6742 245° Southwest 429 494 38,000  Level Washington Center
Thu 05:01:18 AM 37.5244 -76.8253 243° Southwest 429 494 38,000  Level Washington Center
Thu 05:02:16 AM 37.4753 -76.9475 243° Southwest 435 501 38,000  Level Washington Center
Thu 05:03:17 AM 37.4150 -77.0981 243° Southwest 435 501 38,000  Level Washington Center
Thu 05:04:16 AM 37.3611 -77.2381 244° Southwest 441 507 38,000  Level Washington Center
Thu 05:05:18 AM 37.3069 -77.3672 242° Southwest 441 507 38,000  Level Washington Center
Thu 05:06:18 AM 37.2572 -77.4942 244° Southwest 441 507 38,000  Level Washington Center
Thu 05:07:17 AM 37.2028 -77.6258 243° Southwest 441 507 38,000  Level Washington Center
Thu 05:08:17 AM 37.1461 -77.7650 243° Southwest 446 513 38,000  Level Washington Center
Thu 05:09:18 AM 37.0914 -77.8989 243° Southwest 446 513 38,000  Level Washington Center
Thu 05:10:19 AM 37.0367 -78.0325 243° Southwest 446 513 38,000  Level Washington Center
Thu 05:11:19 AM 36.9839 -78.1633 243° Southwest 446 513 38,000  Level Washington Center
Thu 05:12:16 AM 36.9264 -78.3069 243° Southwest 447 514 38,000  Level Washington Center
Thu 05:13:19 AM 36.8714 -78.4375 242° Southwest 447 514 38,000  Level Washington Center
Thu 05:14:17 AM 36.8094 -78.5806 242° Southwest 433 498 38,000  Level Washington Center
Thu 05:15:16 AM 36.7539 -78.7156 243° Southwest 433 498 38,000  Level Washington Center
Thu 05:16:16 AM 36.6981 -78.8483 242° Southwest 433 498 38,000  Level Washington Center
Thu 05:17:19 AM 36.6508 -78.9706 244° Southwest 433 498 38,000  Level Washington Center
Thu 05:18:18 AM 36.5950 -79.1000 242° Southwest 433 498 38,000  Level Washington Center
Thu 05:19:16 AM 36.5369 -79.2242 240° Southwest 426 490 38,000  Level Washington Center
Thu 05:20:16 AM 36.4808 -79.3533 242° Southwest 426 490 38,000  Level Washington Center
Thu 05:22:21 AM 36.3631 -79.6325 242° Southwest 420 483 38,000  Level Atlanta Center
Thu 05:23:21 AM 36.3050 -79.7594 240° Southwest 425 489 38,000  Level Atlanta Center
Thu 05:24:21 AM 36.2547 -79.8753 242° Southwest 425 489 38,000  Level Atlanta Center
Thu 05:25:21 AM 36.1983 -80.0044 242° Southwest 425 489 38,000  Level Atlanta Center
Thu 05:26:21 AM 36.1422 -80.1331 242° Southwest 425 489 38,000  Level Atlanta Center
Thu 05:27:21 AM 36.0878 -80.2617 242° Southwest 425 489 38,000  Level Atlanta Center
Thu 05:28:21 AM 36.0233 -80.4058 241° Southwest 430 495 38,000  Level Atlanta Center
Thu 05:29:21 AM 35.9664 -80.5342 241° Southwest 430 495 38,000  Level Atlanta Center
Thu 05:30:21 AM 35.9178 -80.6542 243° Southwest 430 495 38,000  Level Atlanta Center
Thu 05:31:21 AM 35.8586 -80.7822 240° Southwest 436 502 38,000  Level Atlanta Center
Thu 05:32:21 AM 35.8036 -80.9125 243° Southwest 443 510 38,000  Level Atlanta Center
Thu 05:33:21 AM 35.7461 -81.0375 240° Southwest 443 510 38,000  Level Atlanta Center
Thu 05:34:21 AM 35.6947 -81.1569 242° Southwest 433 498 38,000  Level Atlanta Center
Thu 05:35:21 AM 35.6214 -81.3153 240° Southwest 439 505 38,000  Level Atlanta Center
Thu 05:36:21 AM 35.5617 -81.4500 241° Southwest 450 518 38,000  Level Atlanta Center
Thu 05:37:21 AM 35.5097 -81.5614 240° Southwest 450 518 38,000  Level Atlanta Center
Thu 05:38:21 AM 35.4497 -81.6933 241° Southwest 439 505 38,000  Level Atlanta Center
Thu 05:39:21 AM 35.3914 -81.8197 241° Southwest 439 505 38,000  Level Atlanta Center
Thu 05:40:21 AM 35.3311 -81.9511 241° Southwest 439 505 38,000  Level Atlanta Center
Thu 05:41:21 AM 35.2728 -82.0772 240° Southwest 434 499 38,000 -100 Level Atlanta Center
Thu 05:42:21 AM 35.2100 -82.2008 238° Southwest 434 499 37,800 -800 Descending Atlanta Center
Thu 05:43:21 AM 35.1283 -82.3272 232° Southwest 434 499 36,400 -1,350 Descending Atlanta Center
Thu 05:44:21 AM 35.0486 -82.4431 230° Southwest 442 509 35,100 -1,300 Descending Atlanta Center
Thu 05:45:21 AM 34.9686 -82.5636 231° Southwest 456 525 33,800 -1,100 Descending Atlanta Center
Thu 05:46:21 AM 34.8867 -82.6842 230° Southwest 462 532 32,900 -900 Descending Atlanta Center
Thu 05:47:21 AM 34.8044 -82.8042 230° Southwest 462 532 32,000 -1,050 Descending Atlanta Center
Thu 05:48:21 AM 34.7386 -82.9139 234° Southwest 462 532 30,800 -2,150 Descending Atlanta Center
Thu 05:49:21 AM 34.6731 -83.0461 239° Southwest 457 526 27,700 -2,200 Descending Atlanta Center
Thu 05:50:21 AM 34.6050 -83.1706 236° Southwest 457 526 26,400 -1,350 Descending Atlanta Center
Thu 05:51:21 AM 34.5433 -83.2950 239° Southwest 446 513 25,000 -1,750 Descending Atlanta Center
Thu 05:52:21 AM 34.4606 -83.4039 227° Southwest 440 506 22,900 -2,400 Descending Atlanta Center
Thu 05:53:21 AM 34.3669 -83.5103 223° Southwest 434 499 20,200 -2,600 Descending Atlanta Center
Thu 05:54:21 AM 34.2839 -83.6089 224° Southwest 426 490 17,700 -2,500 Descending Atlanta Center
Thu 05:55:21 AM 34.2050 -83.7072 226° Southwest 413 475 15,200 -1,900 Descending Atlanta Center
Thu 05:57:21 AM 34.0508 -83.8858 224° Southwest 393 452 12,000 -1,622 Descending Atlanta Center
Thu 05:57:49 AM 34.0167 -83.9167 217° Southwest 369 425 11,200 -1,364 Descending Atlanta TRACON
Thu 05:58:49 AM 33.9333 -83.9833 214° Southwest 352 405 10,000 -1,200 Descending Atlanta TRACON
Thu 05:59:49 AM 33.8667 -84.0333 212° Southwest 276 318 8,800 -1,435 Descending Atlanta TRACON
Thu 06:00:21 AM 33.8319 -84.0564 209° Southwest 306 352 7,800 -1,826 Descending Atlanta Center
Thu 06:01:21 AM 33.7672 -84.1064 213° Southwest 282 325 6,000 -1,364 Descending Atlanta Center
Thu 06:01:49 AM 33.7333 -84.1333 213° Southwest 263 303 5,800 -886 Descending Atlanta TRACON
Thu 06:02:49 AM 33.6833 -84.1833 220° Southwest 229 264 4,700 -1,100 Descending Atlanta TRACON
Thu 06:03:49 AM 33.6500 -84.2333 231° Southwest 191 220 3,600 -1,100 Descending Atlanta TRACON

Login

Don't have an account? Register now (free) for customized features, flight alerts, and more!